createdAt,value
2018-12-13T00:01:07.953Z,0.1
2018-12-13T00:02:14.875Z,0.1
2018-12-13T00:03:22.066Z,0.1
2018-12-13T00:04:29.256Z,0.1
2018-12-13T00:05:36.446Z,0.1
2018-12-13T00:06:43.368Z,0.2
2018-12-13T00:07:50.559Z,0.2
2018-12-13T00:08:57.747Z,0.3
2018-12-13T00:10:04.668Z,0.3
2018-12-13T00:11:11.591Z,0.3
2018-12-13T00:12:18.785Z,0.3
2018-12-13T00:13:25.978Z,0.2
2018-12-13T00:14:33.172Z,0.2
2018-12-13T00:15:40.366Z,0.2
2018-12-13T00:16:47.559Z,0.2
2018-12-13T00:17:54.746Z,0.2
2018-12-13T00:19:01.666Z,0.3
2018-12-13T00:20:08.857Z,0.3
2018-12-13T00:21:16.047Z,0.3
2018-12-13T00:22:23.247Z,0.3
2018-12-13T00:23:30.170Z,0.4
2018-12-13T00:24:37.363Z,0.3
2018-12-13T00:25:44.555Z,0.3
2018-12-13T00:26:51.749Z,0.3
2018-12-13T00:27:58.670Z,0.3
2018-12-13T00:29:05.863Z,0.3
2018-12-13T00:30:13.056Z,0.3
2018-12-13T00:31:20.250Z,0.3
2018-12-13T00:32:27.443Z,0.3
2018-12-13T00:33:34.676Z,0.2
2018-12-13T00:34:41.595Z,0.2
2018-12-13T00:35:48.785Z,0.3
2018-12-13T00:36:55.978Z,0.3
2018-12-13T00:38:03.167Z,0.4
2018-12-13T00:39:10.357Z,0.4
2018-12-13T00:40:17.275Z,0.3
2018-12-13T00:41:24.466Z,0.4
2018-12-13T00:42:31.661Z,0.3
2018-12-13T00:43:38.576Z,0.4
2018-12-13T00:44:45.771Z,0.4
2018-12-13T00:45:53.176Z,0.4
2018-12-13T00:47:00.368Z,0.4
2018-12-13T00:48:07.285Z,0.3
2018-12-13T00:49:14.475Z,0.3
2018-12-13T00:50:21.398Z,0.2
2018-12-13T00:51:28.320Z,0.2
2018-12-13T00:52:35.237Z,0.1
2018-12-13T00:53:42.429Z,0.2
2018-12-13T00:54:49.625Z,0.2
2018-12-13T00:55:56.543Z,0.2
2018-12-13T00:57:03.464Z,0.2
2018-12-13T00:58:10.658Z,0.2
2018-12-13T00:59:17.870Z,0.2
2018-12-13T01:00:25.063Z,0.1
2018-12-13T01:01:32.475Z,0.2
2018-12-13T01:02:39.390Z,0.2
2018-12-13T01:03:46.326Z,0.2
2018-12-13T01:04:53.515Z,0.2
2018-12-13T01:06:00.716Z,0.2
2018-12-13T01:07:07.933Z,0.2
2018-12-13T01:08:15.114Z,0.1
2018-12-13T01:09:22.305Z,0.1
2018-12-13T01:10:29.498Z,0.1
2018-12-13T01:11:36.415Z,0.1
2018-12-13T01:12:43.607Z,0.1
2018-12-13T01:13:50.800Z,0
2018-12-13T01:14:57.993Z,0
2018-12-13T01:16:05.190Z,0
2018-12-13T01:17:12.433Z,0
2018-12-13T01:18:19.623Z,0
2018-12-13T01:19:26.818Z,0
2018-12-13T01:20:33.463Z,-0.1
2018-12-13T01:21:40.375Z,0
2018-12-13T01:22:47.293Z,0
2018-12-13T01:23:54.483Z,-0.1
2018-12-13T01:25:01.687Z,-0.1
2018-12-13T01:26:08.877Z,-0.2
2018-12-13T01:27:16.068Z,-0.2
2018-12-13T01:28:23.262Z,-0.2
2018-12-13T01:29:30.451Z,-0.2
2018-12-13T01:30:37.649Z,-0.1
2018-12-13T01:31:44.577Z,-0.1
2018-12-13T01:32:51.769Z,0
2018-12-13T01:33:58.962Z,-0.1
2018-12-13T01:35:06.156Z,-0.1
2018-12-13T01:36:13.078Z,-0.1
2018-12-13T01:37:20.271Z,-0.1
2018-12-13T01:38:27.469Z,-0.1
2018-12-13T01:39:34.660Z,-0.2
2018-12-13T01:40:41.848Z,-0.2
2018-12-13T01:41:49.043Z,-0.2
2018-12-13T01:42:56.237Z,-0.2
2018-12-13T01:44:03.428Z,-0.1
2018-12-13T01:45:10.626Z,-0.1
2018-12-13T01:46:17.816Z,-0.1
2018-12-13T01:47:25.016Z,-0.1
2018-12-13T01:48:32.206Z,-0.1
2018-12-13T01:49:38.859Z,-0.1
2018-12-13T01:50:46.050Z,-0.1
2018-12-13T01:51:53.254Z,-0.1
2018-12-13T01:53:00.443Z,-0.1
2018-12-13T01:54:07.634Z,-0.1
2018-12-13T01:55:14.828Z,-0.1
2018-12-13T01:56:22.060Z,-0.1
2018-12-13T01:57:29.249Z,-0.1
2018-12-13T01:58:36.439Z,0
2018-12-13T01:59:43.634Z,0
2018-12-13T02:00:50.825Z,0
2018-12-13T02:01:57.469Z,0
2018-12-13T02:03:04.659Z,0
2018-12-13T02:04:11.852Z,-0.1
2018-12-13T02:05:19.050Z,-0.1
2018-12-13T02:06:26.243Z,-0.1
2018-12-13T02:07:33.164Z,0
2018-12-13T02:08:40.354Z,0
2018-12-13T02:09:47.555Z,0.1
2018-12-13T02:10:54.744Z,0.1
2018-12-13T02:12:01.394Z,0.1
2018-12-13T02:13:08.603Z,0.1
2018-12-13T02:14:14.974Z,0.1
2018-12-13T02:15:21.898Z,0.1
2018-12-13T02:16:29.128Z,0
2018-12-13T02:17:36.045Z,0
2018-12-13T02:18:42.989Z,0.1
2018-12-13T02:19:50.181Z,0.1
2018-12-13T02:20:57.377Z,0.1
2018-12-13T02:22:04.294Z,0.1
2018-12-13T02:23:11.218Z,0.1
2018-12-13T02:24:18.413Z,0.1
2018-12-13T02:25:25.337Z,0.1
2018-12-13T02:26:32.528Z,0
2018-12-13T02:27:39.721Z,0.1
2018-12-13T02:28:46.910Z,0.1
2018-12-13T02:29:53.852Z,0
2018-12-13T02:31:01.039Z,0
2018-12-13T02:32:08.232Z,0
2018-12-13T02:33:15.431Z,-0.1
2018-12-13T02:34:22.623Z,-0.1
2018-12-13T02:35:29.559Z,-0.1
2018-12-13T02:36:36.478Z,-0.2
2018-12-13T02:37:43.668Z,-0.2
2018-12-13T02:38:50.938Z,-0.2
2018-12-13T02:39:58.130Z,-0.2
2018-12-13T02:41:05.321Z,-0.2
2018-12-13T02:42:12.244Z,-0.3
2018-12-13T02:43:19.448Z,-0.3
2018-12-13T02:44:26.639Z,-0.3
2018-12-13T02:45:33.834Z,-0.3
2018-12-13T02:46:41.026Z,-0.3
2018-12-13T02:47:48.215Z,-0.3
2018-12-13T02:48:55.409Z,-0.3
2018-12-13T02:50:02.832Z,-0.3
2018-12-13T02:51:10.028Z,-0.3
2018-12-13T02:52:17.214Z,-0.2
2018-12-13T02:53:24.406Z,-0.2
2018-12-13T02:54:31.597Z,-0.2
2018-12-13T02:55:38.794Z,-0.3
2018-12-13T02:56:45.991Z,-0.3
2018-12-13T02:57:53.181Z,-0.4
2018-12-13T02:59:00.375Z,-0.4
2018-12-13T03:00:07.569Z,-0.4
2018-12-13T03:01:14.761Z,-0.4
2018-12-13T03:02:21.954Z,-0.4
2018-12-13T03:03:28.876Z,-0.4
2018-12-13T03:04:36.064Z,-0.5
2018-12-13T03:05:43.255Z,-0.4
2018-12-13T03:06:50.448Z,-0.4
2018-12-13T03:07:57.639Z,-0.4
2018-12-13T03:09:04.560Z,-0.4
2018-12-13T03:10:11.482Z,-0.4
2018-12-13T03:11:18.676Z,-0.3
2018-12-13T03:12:25.865Z,-0.4
2018-12-13T03:13:32.782Z,-0.4
2018-12-13T03:14:39.978Z,-0.4
2018-12-13T03:15:47.211Z,-0.4
2018-12-13T03:16:54.396Z,-0.4
2018-12-13T03:18:01.586Z,-0.4
2018-12-13T03:19:08.504Z,-0.4
2018-12-13T03:20:15.696Z,-0.4
2018-12-13T03:21:22.890Z,-0.4
2018-12-13T03:22:29.806Z,-0.4
2018-12-13T03:23:36.999Z,-0.4
2018-12-13T03:24:44.193Z,-0.4
2018-12-13T03:25:51.113Z,-0.4
2018-12-13T03:26:58.313Z,-0.5
2018-12-13T03:28:05.497Z,-0.5
2018-12-13T03:29:12.687Z,-0.6
2018-12-13T03:30:19.622Z,-0.6
2018-12-13T03:31:26.282Z,-0.6
2018-12-13T03:32:33.478Z,-0.6
2018-12-13T03:33:40.670Z,-0.7
2018-12-13T03:34:49.055Z,-0.7
2018-12-13T03:35:56.338Z,-0.7
2018-12-13T03:37:03.526Z,-0.7
2018-12-13T03:38:10.456Z,-0.7
2018-12-13T03:39:17.374Z,-0.7
2018-12-13T03:40:24.568Z,-0.7
2018-12-13T03:41:31.767Z,-0.8
2018-12-13T03:42:38.956Z,-0.7
2018-12-13T03:43:46.148Z,-0.8
2018-12-13T03:44:53.066Z,-0.8
2018-12-13T03:46:00.309Z,-0.8
2018-12-13T03:47:07.504Z,-0.8
2018-12-13T03:48:14.422Z,-0.8
2018-12-13T03:49:21.623Z,-0.8
2018-12-13T03:50:28.806Z,-0.8
2018-12-13T03:51:35.726Z,-0.8
2018-12-13T03:52:42.647Z,-0.8
2018-12-13T03:53:49.841Z,-0.8
2018-12-13T03:54:56.759Z,-0.8
2018-12-13T03:56:03.954Z,-0.9
2018-12-13T03:57:11.147Z,-0.9
2018-12-13T03:58:17.798Z,-0.9
2018-12-13T03:59:24.986Z,-0.9
2018-12-13T04:00:32.188Z,-1
2018-12-13T04:01:39.092Z,-1
2018-12-13T04:02:46.059Z,-1
2018-12-13T04:03:53.260Z,-0.9
2018-12-13T04:05:00.451Z,-0.9
2018-12-13T04:06:07.645Z,-0.9
2018-12-13T04:07:14.839Z,-1
2018-12-13T04:08:22.031Z,-1
2018-12-13T04:09:29.217Z,-1
2018-12-13T04:10:36.155Z,-1
2018-12-13T04:11:43.070Z,-1
2018-12-13T04:12:49.986Z,-1
2018-12-13T04:13:57.177Z,-1
2018-12-13T04:15:04.370Z,-0.9
2018-12-13T04:16:11.563Z,-0.9
2018-12-13T04:17:18.759Z,-0.9
2018-12-13T04:18:25.952Z,-0.9
2018-12-13T04:19:32.865Z,-0.9
2018-12-13T04:20:39.529Z,-0.9
2018-12-13T04:21:46.446Z,-1
2018-12-13T04:22:53.369Z,-1
2018-12-13T04:24:00.562Z,-1
2018-12-13T04:25:07.744Z,-1
2018-12-13T04:26:14.389Z,-1
2018-12-13T04:27:21.584Z,-1
2018-12-13T04:28:28.778Z,-1
2018-12-13T04:29:35.973Z,-1
2018-12-13T04:30:43.166Z,-1
2018-12-13T04:31:50.350Z,-1
2018-12-13T04:32:57.275Z,-1
2018-12-13T04:34:04.464Z,-1
2018-12-13T04:35:11.381Z,-1
2018-12-13T04:36:18.025Z,-1
2018-12-13T04:37:24.938Z,-1
2018-12-13T04:38:32.130Z,-1
2018-12-13T04:39:39.356Z,-1
2018-12-13T04:40:46.279Z,-1
2018-12-13T04:41:53.474Z,-1
2018-12-13T04:43:00.665Z,-1
2018-12-13T04:44:07.863Z,-1
2018-12-13T04:45:15.062Z,-1
2018-12-13T04:46:22.253Z,-1
2018-12-13T04:47:29.447Z,-1
2018-12-13T04:48:36.642Z,-1
2018-12-13T04:49:43.853Z,-1
2018-12-13T04:50:51.095Z,-1
2018-12-13T04:51:58.286Z,-1
2018-12-13T04:53:05.501Z,-1
2018-12-13T04:54:12.690Z,-1.1
2018-12-13T04:55:19.881Z,-1.1
2018-12-13T04:56:27.067Z,-1.2
2018-12-13T04:57:33.986Z,-1.1
2018-12-13T04:58:40.903Z,-1.1
2018-12-13T04:59:48.306Z,-1.1
2018-12-13T05:00:55.497Z,-1
2018-12-13T05:02:02.688Z,-1.1
2018-12-13T05:03:09.882Z,-1.1
2018-12-13T05:04:17.084Z,-1.1
2018-12-13T05:05:24.281Z,-1.2
2018-12-13T05:06:31.477Z,-1.2
2018-12-13T05:07:42.293Z,-1.2
2018-12-13T05:08:49.488Z,-1.2
2018-12-13T05:09:56.681Z,-1.1
2018-12-13T05:11:03.878Z,-1.1
2018-12-13T05:12:11.071Z,-1
2018-12-13T05:13:18.268Z,-1.1
2018-12-13T05:14:25.466Z,-1.1
2018-12-13T05:15:32.651Z,-1.1
2018-12-13T05:16:39.843Z,-1.1
2018-12-13T05:17:46.760Z,-1.2
2018-12-13T05:18:53.952Z,-1.2
2018-12-13T05:20:01.144Z,-1.1
2018-12-13T05:21:08.336Z,-1
2018-12-13T05:22:15.527Z,-1
2018-12-13T05:23:22.446Z,-1.1
2018-12-13T05:24:29.635Z,-1.1
2018-12-13T05:25:36.840Z,-1.1
2018-12-13T05:26:44.033Z,-1.1
2018-12-13T05:27:50.956Z,-1.1
2018-12-13T05:28:57.868Z,-1.1
2018-12-13T05:30:05.061Z,-1.2
2018-12-13T05:31:12.258Z,-1.2
2018-12-13T05:32:19.452Z,-1.3
2018-12-13T05:33:26.370Z,-1.3
2018-12-13T05:34:33.563Z,-1.3
2018-12-13T05:35:40.757Z,-1.3
2018-12-13T05:36:47.950Z,-1.4
2018-12-13T05:37:55.143Z,-1.4
2018-12-13T05:39:02.337Z,-1.4
2018-12-13T05:40:09.527Z,-1.4
2018-12-13T05:41:16.715Z,-1.4
2018-12-13T05:42:23.903Z,-1.4
2018-12-13T05:43:30.821Z,-1.4
2018-12-13T05:44:37.745Z,-1.4
2018-12-13T05:45:44.937Z,-1.4
2018-12-13T05:46:51.868Z,-1.4
2018-12-13T05:47:59.061Z,-1.4
2018-12-13T05:49:06.259Z,-1.4
2018-12-13T05:50:13.174Z,-1.4
2018-12-13T05:51:20.368Z,-1.3
2018-12-13T05:52:27.558Z,-1.4
2018-12-13T05:53:34.751Z,-1.4
2018-12-13T05:54:41.666Z,-1.4
2018-12-13T05:55:48.859Z,-1.5
2018-12-13T05:56:56.052Z,-1.5
2018-12-13T05:58:03.243Z,-1.4
2018-12-13T05:59:10.164Z,-1.4
2018-12-13T06:00:17.355Z,-1.4
2018-12-13T06:01:24.543Z,-1.3
2018-12-13T06:02:31.465Z,-1.3
2018-12-13T06:03:38.662Z,-1.2
2018-12-13T06:04:45.850Z,-1.3
2018-12-13T06:05:53.044Z,-1.3
2018-12-13T06:07:00.239Z,-1.3
2018-12-13T06:08:07.181Z,-1.3
2018-12-13T06:09:14.100Z,-1.3
2018-12-13T06:10:21.292Z,-1.2
2018-12-13T06:11:28.484Z,-1.2
2018-12-13T06:12:35.674Z,-1.2
2018-12-13T06:13:42.865Z,-1.2
2018-12-13T06:14:50.059Z,-1.1
2018-12-13T06:15:57.242Z,-1.1
2018-12-13T06:17:04.439Z,-1.1
2018-12-13T06:18:11.629Z,-1.1
2018-12-13T06:19:18.816Z,-1.1
2018-12-13T06:20:26.011Z,-1.1
2018-12-13T06:21:37.412Z,-1.2
2018-12-13T06:22:44.330Z,-1.1
2018-12-13T06:23:51.519Z,-1.1
2018-12-13T06:24:58.711Z,-1.1
2018-12-13T06:26:05.630Z,-1.2
2018-12-13T06:27:12.552Z,-1.2
2018-12-13T06:28:19.469Z,-1.2
2018-12-13T06:29:26.392Z,-1.2
2018-12-13T06:30:33.583Z,-1.3
2018-12-13T06:31:40.781Z,-1.3
2018-12-13T06:32:47.977Z,-1.3
2018-12-13T06:33:55.173Z,-1.4
2018-12-13T06:35:02.089Z,-1.4
2018-12-13T06:36:09.288Z,-1.4
2018-12-13T06:37:16.493Z,-1.3
2018-12-13T06:38:23.683Z,-1.4
2018-12-13T06:39:30.876Z,-1.2
2018-12-13T06:40:38.069Z,-1.2
2018-12-13T06:41:45.255Z,-1.2
2018-12-13T06:42:52.449Z,-1.2
2018-12-13T06:43:59.360Z,-1.2
2018-12-13T06:45:06.549Z,-1.2
2018-12-13T06:46:13.742Z,-1.2
2018-12-13T06:47:20.937Z,-1.2
2018-12-13T06:48:28.130Z,-1.3
2018-12-13T06:49:35.322Z,-1.3
2018-12-13T06:50:42.245Z,-1.3
2018-12-13T06:51:49.433Z,-1.3
2018-12-13T06:52:56.639Z,-1.3
2018-12-13T06:54:03.833Z,-1.3
2018-12-13T06:55:11.033Z,-1.3
2018-12-13T06:56:18.228Z,-1.4
2018-12-13T06:57:25.422Z,-1.4
2018-12-13T06:58:32.073Z,-1.4
2018-12-13T06:59:39.267Z,-1.4
2018-12-13T07:00:46.462Z,-1.4
2018-12-13T07:01:53.655Z,-1.4
2018-12-13T07:03:00.849Z,-1.4
2018-12-13T07:04:08.047Z,-1.4
2018-12-13T07:05:15.246Z,-1.4
2018-12-13T07:06:22.438Z,-1.4
2018-12-13T07:07:29.644Z,-1.4
2018-12-13T07:08:36.848Z,-1.4
2018-12-13T07:09:44.047Z,-1.4
2018-12-13T07:10:51.240Z,-1.5
2018-12-13T07:11:58.435Z,-1.5
2018-12-13T07:13:05.627Z,-1.4
2018-12-13T07:14:12.818Z,-1.4
2018-12-13T07:15:20.066Z,-1.5
2018-12-13T07:16:26.725Z,-1.5
2018-12-13T07:17:33.912Z,-1.5
2018-12-13T07:18:41.158Z,-1.4
2018-12-13T07:19:48.359Z,-1.4
2018-12-13T07:20:55.552Z,-1.4
2018-12-13T07:22:02.746Z,-1.4
2018-12-13T07:23:09.936Z,-1.4
2018-12-13T07:24:17.129Z,-1.4
2018-12-13T07:25:24.327Z,-1.4
2018-12-13T07:26:31.247Z,-1.4
2018-12-13T07:27:38.449Z,-1.5
2018-12-13T07:28:45.643Z,-1.5
2018-12-13T07:29:52.844Z,-1.5
2018-12-13T07:30:59.766Z,-1.4
2018-12-13T07:32:06.681Z,-1.4
2018-12-13T07:33:13.871Z,-1.4
2018-12-13T07:34:21.104Z,-1.4
2018-12-13T07:35:28.018Z,-1.4
2018-12-13T07:36:34.942Z,-1.5
2018-12-13T07:37:42.135Z,-1.5
2018-12-13T07:38:49.330Z,-1.5
2018-12-13T07:39:56.246Z,-1.4
2018-12-13T07:41:03.437Z,-1.4
2018-12-13T07:42:10.352Z,-1.4
2018-12-13T07:43:17.574Z,-1.5
2018-12-13T07:44:24.762Z,-1.6
2018-12-13T07:45:31.952Z,-1.5
2018-12-13T07:46:39.145Z,-1.5
2018-12-13T07:47:46.068Z,-1.5
2018-12-13T07:48:57.068Z,-1.5
2018-12-13T07:50:04.264Z,-1.5
2018-12-13T07:51:11.473Z,-1.5
2018-12-13T07:52:18.663Z,-1.5
2018-12-13T07:53:25.858Z,-1.4
2018-12-13T07:54:32.784Z,-1.5
2018-12-13T07:55:39.156Z,-1.4
2018-12-13T07:56:46.358Z,-1.4
2018-12-13T07:57:53.552Z,-1.3
2018-12-13T07:59:00.186Z,-1.3
2018-12-13T08:00:07.382Z,-1.3
2018-12-13T08:01:14.572Z,-1.3
2018-12-13T08:02:21.764Z,-1.3
2018-12-13T08:03:28.961Z,-1.3
2018-12-13T08:04:36.155Z,-1.2
2018-12-13T08:05:43.350Z,-1.2
2018-12-13T08:06:50.539Z,-1.2
2018-12-13T08:07:57.457Z,-1.2
2018-12-13T08:09:04.650Z,-1.1
2018-12-13T08:10:11.570Z,-1.1
2018-12-13T08:11:18.758Z,-1.1
2018-12-13T08:12:25.958Z,-1.1
2018-12-13T08:13:33.168Z,-1.1
2018-12-13T08:14:40.362Z,-1.1
2018-12-13T08:15:47.557Z,-1
2018-12-13T08:16:54.751Z,-1
2018-12-13T08:18:01.948Z,-1
2018-12-13T08:19:09.143Z,-1
2018-12-13T08:20:16.337Z,-0.9
2018-12-13T08:21:23.534Z,-0.9
2018-12-13T08:22:30.727Z,-0.9
2018-12-13T08:23:37.933Z,-1
2018-12-13T08:24:45.125Z,-0.9
2018-12-13T08:25:52.314Z,-0.9
2018-12-13T08:26:59.503Z,-0.9
2018-12-13T08:28:06.696Z,-0.8
2018-12-13T08:29:13.941Z,-0.8
2018-12-13T08:30:20.862Z,-0.8
2018-12-13T08:31:28.058Z,-0.8
2018-12-13T08:32:35.243Z,-0.8
2018-12-13T08:33:42.436Z,-0.8
2018-12-13T08:34:49.686Z,-0.8
2018-12-13T08:35:56.878Z,-0.8
2018-12-13T08:37:04.072Z,-0.7
2018-12-13T08:38:10.990Z,-0.7
2018-12-13T08:39:18.187Z,-0.7
2018-12-13T08:40:25.095Z,-0.7
2018-12-13T08:41:32.287Z,-0.6
2018-12-13T08:42:39.491Z,-0.6
2018-12-13T08:43:46.409Z,-0.6
2018-12-13T08:44:53.323Z,-0.6
2018-12-13T08:46:00.247Z,-0.6
2018-12-13T08:47:07.445Z,-0.5
2018-12-13T08:48:14.632Z,-0.5
2018-12-13T08:49:21.825Z,-0.5
2018-12-13T08:50:29.020Z,-0.5
2018-12-13T08:51:36.236Z,-0.4
2018-12-13T08:52:43.431Z,-0.4
2018-12-13T08:53:50.620Z,-0.4
2018-12-13T08:54:57.821Z,-0.4
2018-12-13T08:56:05.012Z,-0.4
2018-12-13T08:57:12.230Z,-0.4
2018-12-13T08:58:19.426Z,-0.3
2018-12-13T08:59:26.626Z,-0.3
2018-12-13T09:00:33.822Z,-0.2
2018-12-13T09:01:41.021Z,-0.2
2018-12-13T09:02:48.210Z,-0.1
2018-12-13T09:03:55.402Z,-0.2
2018-12-13T09:05:02.591Z,-0.2
2018-12-13T09:06:09.513Z,-0.2
2018-12-13T09:07:16.435Z,-0.2
2018-12-13T09:08:23.351Z,-0.1
2018-12-13T09:09:30.415Z,-0.1
2018-12-13T09:10:37.611Z,-0.1
2018-12-13T09:11:44.804Z,0
2018-12-13T09:12:52.051Z,0
2018-12-13T09:13:59.238Z,0.1
2018-12-13T09:15:07.611Z,0.1
2018-12-13T09:16:14.568Z,0
2018-12-13T09:17:21.763Z,0
2018-12-13T09:18:28.687Z,0.1
2018-12-13T09:19:35.879Z,0.1
2018-12-13T09:20:43.068Z,0.1
2018-12-13T09:21:50.265Z,0.1
2018-12-13T09:22:57.457Z,0.1
2018-12-13T09:24:04.649Z,0.1
2018-12-13T09:25:11.839Z,0.1
2018-12-13T09:26:19.034Z,0.2
2018-12-13T09:27:25.953Z,0.2
2018-12-13T09:28:33.145Z,0.2
2018-12-13T09:29:40.061Z,0.2
2018-12-13T09:30:47.255Z,0.2
2018-12-13T09:31:54.455Z,0.2
2018-12-13T09:33:01.373Z,0.2
2018-12-13T09:34:08.295Z,0.3
2018-12-13T09:35:15.485Z,0.3
2018-12-13T09:36:22.679Z,0.2
2018-12-13T09:37:29.635Z,0.2
2018-12-13T09:38:40.438Z,0.2
2018-12-13T09:39:47.631Z,0.2
2018-12-13T09:40:54.825Z,0.2
2018-12-13T09:42:02.019Z,0.2
2018-12-13T09:43:09.212Z,0.2
2018-12-13T09:44:16.407Z,0.2
2018-12-13T09:45:23.599Z,0.3
2018-12-13T09:46:30.791Z,0.3
2018-12-13T09:47:37.987Z,0.3
2018-12-13T09:48:44.902Z,0.4
2018-12-13T09:49:52.100Z,0.4
2018-12-13T09:50:59.297Z,0.5
2018-12-13T09:52:06.501Z,0.5
2018-12-13T09:53:13.687Z,0.4
2018-12-13T09:54:20.879Z,0.4
2018-12-13T09:55:27.799Z,0.5
2018-12-13T09:56:34.991Z,0.5
2018-12-13T09:57:42.181Z,0.5
2018-12-13T09:58:49.376Z,0.5
2018-12-13T09:59:56.581Z,0.6
2018-12-13T10:01:03.500Z,0.5
2018-12-13T10:02:10.691Z,0.5
2018-12-13T10:03:17.886Z,0.3
2018-12-13T10:04:25.075Z,0.4
2018-12-13T10:05:31.991Z,0.5
2018-12-13T10:06:38.912Z,0.5
2018-12-13T10:07:45.834Z,0.5
2018-12-13T10:08:53.029Z,0.5
2018-12-13T10:10:00.227Z,0.5
2018-12-13T10:11:07.155Z,0.6
2018-12-13T10:12:14.078Z,0.6
2018-12-13T10:13:21.278Z,0.7
2018-12-13T10:14:28.201Z,0.7
2018-12-13T10:15:35.118Z,0.6
2018-12-13T10:16:42.045Z,0.6
2018-12-13T10:17:49.238Z,0.7
2018-12-13T10:18:56.425Z,0.7
2018-12-13T10:20:03.350Z,0.8
2018-12-13T10:21:10.545Z,0.8
2018-12-13T10:22:17.738Z,0.8
2018-12-13T10:23:24.930Z,0.7
2018-12-13T10:24:32.124Z,0.8
2018-12-13T10:25:39.318Z,0.8
2018-12-13T10:26:46.514Z,0.9
2018-12-13T10:27:53.433Z,0.9
2018-12-13T10:29:00.642Z,0.9
2018-12-13T10:30:07.833Z,0.9
2018-12-13T10:31:14.755Z,1
2018-12-13T10:32:21.959Z,1.1
2018-12-13T10:33:28.646Z,1.2
2018-12-13T10:34:35.836Z,1.3
2018-12-13T10:35:43.030Z,1.2
2018-12-13T10:36:50.226Z,1
2018-12-13T10:37:57.421Z,1
2018-12-13T10:39:04.616Z,1
2018-12-13T10:40:11.814Z,0.9
2018-12-13T10:41:19.004Z,0.9
2018-12-13T10:42:26.201Z,0.8
2018-12-13T10:43:33.399Z,0.8
2018-12-13T10:44:40.630Z,0.8
2018-12-13T10:45:47.821Z,0.7
2018-12-13T10:46:55.023Z,0.7
2018-12-13T10:48:02.208Z,0.7
2018-12-13T10:49:09.404Z,0.8
2018-12-13T10:50:16.601Z,0.7
2018-12-13T10:51:23.792Z,0.8
2018-12-13T10:52:31.001Z,0.9
2018-12-13T10:53:38.194Z,0.9
2018-12-13T10:54:45.384Z,0.9
2018-12-13T10:55:52.575Z,0.9
2018-12-13T10:56:59.560Z,0.9
2018-12-13T10:58:06.756Z,1
2018-12-13T10:59:13.949Z,0.8
2018-12-13T11:00:21.147Z,0.8
2018-12-13T11:01:28.336Z,0.9
2018-12-13T11:02:35.005Z,1
2018-12-13T11:03:42.202Z,1
2018-12-13T11:04:49.402Z,1
2018-12-13T11:05:56.320Z,0.9
2018-12-13T11:07:03.515Z,0.8
2018-12-13T11:08:10.439Z,0.8
2018-12-13T11:09:17.628Z,0.7
2018-12-13T11:10:26.006Z,0.7
2018-12-13T11:11:33.200Z,0.8
2018-12-13T11:12:40.395Z,0.8
2018-12-13T11:13:47.593Z,0.8
2018-12-13T11:14:54.789Z,0.7
2018-12-13T11:16:01.978Z,0.7
2018-12-13T11:17:09.176Z,0.7
2018-12-13T11:18:16.371Z,0.7
2018-12-13T11:19:23.567Z,0.6
2018-12-13T11:20:31.001Z,0.5
2018-12-13T11:21:37.911Z,0.5
2018-12-13T11:22:44.558Z,0.5
2018-12-13T11:23:51.473Z,0.5
2018-12-13T11:24:58.668Z,0.6
2018-12-13T11:26:05.860Z,0.5
2018-12-13T11:27:13.054Z,0.6
2018-12-13T11:28:20.242Z,0.7
2018-12-13T11:29:27.447Z,0.7
2018-12-13T11:30:34.640Z,0.6
2018-12-13T11:31:41.831Z,0.7
2018-12-13T11:32:49.030Z,0.6
2018-12-13T11:33:56.222Z,0.6
2018-12-13T11:35:03.418Z,0.6
2018-12-13T11:36:10.609Z,0.6
2018-12-13T11:37:17.802Z,0.6
2018-12-13T11:38:24.995Z,0.6
2018-12-13T11:39:32.200Z,0.6
2018-12-13T11:40:39.395Z,0.6
2018-12-13T11:41:46.587Z,0.7
2018-12-13T11:42:53.779Z,0.7
2018-12-13T11:44:00.770Z,0.8
2018-12-13T11:45:07.964Z,0.8
2018-12-13T11:46:15.168Z,0.9
2018-12-13T11:47:22.931Z,0.8
2018-12-13T11:48:30.123Z,0.8
2018-12-13T11:49:37.043Z,0.7
2018-12-13T11:50:44.242Z,0.7
2018-12-13T11:51:50.921Z,0.7
2018-12-13T11:52:57.834Z,0.8
2018-12-13T11:54:04.473Z,0.8
2018-12-13T11:55:11.397Z,0.8
2018-12-13T11:56:18.622Z,0.8
2018-12-13T11:57:25.841Z,0.9
2018-12-13T11:58:32.763Z,0.9
2018-12-13T11:59:39.962Z,1
2018-12-13T12:00:47.167Z,0.9
2018-12-13T12:01:54.358Z,0.9
2018-12-13T12:03:01.550Z,0.8
2018-12-13T12:04:08.234Z,0.8
2018-12-13T12:05:15.142Z,0.8
2018-12-13T12:06:22.332Z,0.9
2018-12-13T12:07:28.984Z,0.9
2018-12-13T12:08:36.176Z,0.9
2018-12-13T12:09:43.375Z,0.9
2018-12-13T12:10:50.570Z,0.8
2018-12-13T12:11:57.818Z,0.8
2018-12-13T12:13:04.726Z,0.9
2018-12-13T12:14:11.650Z,0.9
2018-12-13T12:15:18.841Z,0.8
2018-12-13T12:16:26.041Z,0.8
2018-12-13T12:17:33.231Z,0.8
2018-12-13T12:18:40.426Z,0.8
2018-12-13T12:19:47.620Z,0.8
2018-12-13T12:20:54.816Z,0.7
2018-12-13T12:22:02.015Z,0.8
2018-12-13T12:23:09.210Z,0.8
2018-12-13T12:24:16.405Z,0.7
2018-12-13T12:25:23.603Z,0.8
2018-12-13T12:26:30.525Z,0.8
2018-12-13T12:27:37.721Z,0.7
2018-12-13T12:28:44.916Z,0.7
2018-12-13T12:29:51.838Z,0.8
2018-12-13T12:30:59.037Z,0.7
2018-12-13T12:32:06.238Z,0.7
2018-12-13T12:33:13.439Z,0.7
2018-12-13T12:34:20.632Z,0.6
2018-12-13T12:35:27.834Z,0.6
2018-12-13T12:36:35.039Z,0.6
2018-12-13T12:37:42.237Z,0.6
2018-12-13T12:38:49.156Z,0.6
2018-12-13T12:39:56.348Z,0.6
2018-12-13T12:41:03.275Z,0.6
2018-12-13T12:42:10.476Z,0.7
2018-12-13T12:43:17.670Z,0.7
2018-12-13T12:44:24.867Z,0.7
2018-12-13T12:45:32.070Z,0.7
2018-12-13T12:46:39.273Z,0.7
2018-12-13T12:47:46.469Z,0.8
2018-12-13T12:48:53.663Z,0.7
2018-12-13T12:50:00.858Z,0.7
2018-12-13T12:51:08.071Z,0.7
2018-12-13T12:52:15.270Z,0.8
2018-12-13T12:53:22.470Z,0.8
2018-12-13T12:54:29.668Z,0.8
2018-12-13T12:55:36.861Z,0.8
2018-12-13T12:56:44.055Z,0.8
2018-12-13T12:57:51.253Z,0.8
2018-12-13T12:58:58.177Z,0.9
2018-12-13T13:00:05.371Z,0.8
2018-12-13T13:01:12.564Z,0.8
2018-12-13T13:02:19.491Z,0.8
2018-12-13T13:03:26.688Z,0.8
2018-12-13T13:04:33.878Z,0.8
2018-12-13T13:05:41.078Z,0.8
2018-12-13T13:06:48.275Z,0.8
2018-12-13T13:07:55.472Z,0.9
2018-12-13T13:09:04.036Z,0.9
2018-12-13T13:10:10.969Z,1
2018-12-13T13:11:18.168Z,1
2018-12-13T13:12:25.363Z,1
2018-12-13T13:13:32.559Z,0.9
2018-12-13T13:14:39.474Z,0.9
2018-12-13T13:15:46.667Z,0.9
2018-12-13T13:16:53.863Z,0.8
2018-12-13T13:18:01.061Z,0.8
2018-12-13T13:19:08.256Z,0.8
2018-12-13T13:20:15.455Z,0.8
2018-12-13T13:21:22.375Z,0.9
2018-12-13T13:22:29.573Z,0.8
2018-12-13T13:23:36.763Z,0.8
2018-12-13T13:24:43.957Z,0.8
2018-12-13T13:25:51.150Z,0.8
2018-12-13T13:26:58.352Z,0.7
2018-12-13T13:28:05.540Z,0.8
2018-12-13T13:29:12.734Z,0.8
2018-12-13T13:30:19.925Z,0.7
2018-12-13T13:31:27.124Z,0.7
2018-12-13T13:32:34.324Z,0.7
2018-12-13T13:33:41.242Z,0.7
2018-12-13T13:34:48.440Z,0.7
2018-12-13T13:35:55.359Z,0.7
2018-12-13T13:37:02.293Z,0.7
2018-12-13T13:38:08.939Z,0.7
2018-12-13T13:39:16.141Z,0.6
2018-12-13T13:40:23.334Z,0.6
2018-12-13T13:41:30.528Z,0.7
2018-12-13T13:42:37.722Z,0.6
2018-12-13T13:43:44.918Z,0.6
2018-12-13T13:44:52.123Z,0.6
2018-12-13T13:45:59.315Z,0.6
2018-12-13T13:47:06.510Z,0.6
2018-12-13T13:48:13.437Z,0.6
2018-12-13T13:49:20.634Z,0.6
2018-12-13T13:50:27.830Z,0.6
2018-12-13T13:51:34.751Z,0.6
2018-12-13T13:52:41.944Z,0.6
2018-12-13T13:53:48.863Z,0.7
2018-12-13T13:54:56.055Z,0.6
2018-12-13T13:56:03.248Z,0.7
2018-12-13T13:57:10.436Z,0.7
2018-12-13T13:58:17.409Z,0.7
2018-12-13T13:59:24.332Z,0.7
2018-12-13T14:00:31.524Z,0.6
2018-12-13T14:01:38.444Z,0.6
2018-12-13T14:02:45.641Z,0.6
2018-12-13T14:03:52.846Z,0.6
2018-12-13T14:05:00.044Z,0.6
2018-12-13T14:06:06.976Z,0.6
2018-12-13T14:07:14.174Z,0.6
2018-12-13T14:08:21.083Z,0.6
2018-12-13T14:09:28.276Z,0.6
2018-12-13T14:10:35.200Z,0.6
2018-12-13T14:11:42.395Z,0.6
2018-12-13T14:12:49.588Z,0.6
2018-12-13T14:13:56.225Z,0.6
2018-12-13T14:15:03.420Z,0.6
2018-12-13T14:16:10.615Z,0.6
2018-12-13T14:17:17.809Z,0.6
2018-12-13T14:18:25.006Z,0.6
2018-12-13T14:19:31.924Z,0.6
2018-12-13T14:20:38.843Z,0.6
2018-12-13T14:21:46.035Z,0.6
2018-12-13T14:22:53.232Z,0.6
2018-12-13T14:24:00.427Z,0.5
2018-12-13T14:25:22.271Z,0.5
2018-12-13T14:26:29.471Z,0.5
2018-12-13T14:27:36.670Z,0.5
2018-12-13T14:28:43.872Z,0.5
2018-12-13T14:29:51.070Z,0.5
2018-12-13T14:30:58.264Z,0.4
2018-12-13T14:32:05.181Z,0.4
2018-12-13T14:33:12.371Z,0.4
2018-12-13T14:34:19.563Z,0.4
2018-12-13T14:35:26.765Z,0.4
2018-12-13T14:36:33.969Z,0.4
2018-12-13T14:37:41.181Z,0.4
2018-12-13T14:38:48.375Z,0.4
2018-12-13T14:39:55.577Z,0.4
2018-12-13T14:41:02.778Z,0.4
2018-12-13T14:42:09.974Z,0.4
2018-12-13T14:43:16.896Z,0.4
2018-12-13T14:44:24.090Z,0.4
2018-12-13T14:45:31.310Z,0.4
2018-12-13T14:46:38.512Z,0.4
2018-12-13T14:47:45.432Z,0.4
2018-12-13T14:48:52.625Z,0.4
2018-12-13T14:49:59.819Z,0.4
2018-12-13T14:51:07.013Z,0.4
2018-12-13T14:52:14.235Z,0.4
2018-12-13T14:53:21.450Z,0.4
2018-12-13T14:54:28.628Z,0.4
2018-12-13T14:55:35.827Z,0.4
2018-12-13T14:56:42.751Z,0.3
2018-12-13T14:57:49.682Z,0.3
2018-12-13T14:58:56.877Z,0.4
2018-12-13T15:00:03.837Z,0.3
2018-12-13T15:01:10.759Z,0.4
2018-12-13T15:02:17.958Z,0.3
2018-12-13T15:03:25.151Z,0.3
2018-12-13T15:04:32.345Z,0.3
2018-12-13T15:05:39.271Z,0.3
2018-12-13T15:06:46.207Z,0.3
2018-12-13T15:07:53.126Z,0.3
2018-12-13T15:09:00.322Z,0.3
2018-12-13T15:10:07.297Z,0.3
2018-12-13T15:11:13.941Z,0.3
2018-12-13T15:12:20.883Z,0.2
2018-12-13T15:13:28.078Z,0.3
2018-12-13T15:14:35.269Z,0.3
2018-12-13T15:15:42.467Z,0.3
2018-12-13T15:16:49.657Z,0.2